createdAt,value
2023-05-05T00:00:08.922Z,12.53
2023-05-05T00:02:37.284Z,12.03
2023-05-05T00:05:05.958Z,11.80
2023-05-05T00:07:34.038Z,12.10
2023-05-05T00:10:01.986Z,11.57
2023-05-05T00:12:30.361Z,12.10
2023-05-05T00:14:58.439Z,11.00
2023-05-05T00:17:27.809Z,11.80
2023-05-05T00:19:55.805Z,11.20
2023-05-05T00:22:23.779Z,11.50
2023-05-05T00:24:51.752Z,10.73
2023-05-05T00:27:19.712Z,11.53
2023-05-05T00:29:47.668Z,10.97
2023-05-05T00:32:15.615Z,10.83
2023-05-05T00:34:44.992Z,10.00
2023-05-05T00:37:13.027Z,9.90
2023-05-05T00:39:41.025Z,9.67
2023-05-05T00:42:09.028Z,8.70
2023-05-05T00:44:40.277Z,9.10
2023-05-05T00:47:09.598Z,9.07
2023-05-05T00:49:38.982Z,9.13
2023-05-05T00:52:09.824Z,9.50
2023-05-05T00:54:38.890Z,8.90
2023-05-05T00:57:07.849Z,9.43
2023-05-05T00:59:36.331Z,9.23
2023-05-05T01:02:04.422Z,10.00
2023-05-05T01:04:32.497Z,9.40
2023-05-05T01:07:14.812Z,9.13
2023-05-05T01:10:15.303Z,9.90
2023-05-05T01:12:47.534Z,9.30
2023-05-05T01:15:23.052Z,9.60
2023-05-05T01:18:07.632Z,9.77
2023-05-05T01:20:44.024Z,9.77
2023-05-05T01:23:19.597Z,9.73
2023-05-05T01:26:06.736Z,10.13
2023-05-05T01:29:04.137Z,10.03
2023-05-05T01:31:57.135Z,9.60
2023-05-05T01:34:29.844Z,10.17
2023-05-05T01:37:04.744Z,10.30
2023-05-05T01:39:35.007Z,9.50
2023-05-05T01:42:07.503Z,10.27
2023-05-05T01:44:37.658Z,9.43
2023-05-05T01:47:07.862Z,9.93
2023-05-05T01:49:38.290Z,10.63
2023-05-05T01:52:07.907Z,10.53
2023-05-05T01:54:36.326Z,11.30
2023-05-05T01:57:05.877Z,10.10
2023-05-05T01:59:34.981Z,10.17
2023-05-05T02:02:04.315Z,9.63
2023-05-05T02:04:35.113Z,11.53
2023-05-05T02:07:05.397Z,10.73
2023-05-05T02:09:34.240Z,10.33
2023-05-05T02:12:03.517Z,10.53
2023-05-05T02:14:32.166Z,12.07
2023-05-05T02:17:01.443Z,12.37
2023-05-05T02:19:32.892Z,11.40
2023-05-05T02:22:02.317Z,11.23
2023-05-05T02:24:30.983Z,11.23
2023-05-05T02:27:00.735Z,11.00
2023-05-05T02:29:33.760Z,10.53
2023-05-05T02:32:06.137Z,10.17
2023-05-05T02:34:38.078Z,10.00
2023-05-05T02:37:10.857Z,11.20
2023-05-05T02:39:44.098Z,11.20
2023-05-05T02:42:17.423Z,9.90
2023-05-05T02:44:47.286Z,10.00
2023-05-05T02:47:15.258Z,10.40
2023-05-05T02:49:44.194Z,11.27
2023-05-05T02:52:14.494Z,10.73
2023-05-05T02:54:42.509Z,10.37
2023-05-05T02:57:17.252Z,10.27
2023-05-05T02:59:51.354Z,10.83
2023-05-05T03:02:25.926Z,10.90
2023-05-05T03:05:01.511Z,10.03
2023-05-05T03:07:35.954Z,10.80
2023-05-05T03:10:08.632Z,10.97
2023-05-05T03:12:40.886Z,10.93
2023-05-05T03:15:11.515Z,10.30
2023-05-05T03:17:42.067Z,11.07
2023-05-05T03:20:12.390Z,11.33
2023-05-05T03:22:41.701Z,11.23
2023-05-05T03:25:10.454Z,12.60
2023-05-05T03:27:38.409Z,12.03
2023-05-05T03:30:07.999Z,12.27
2023-05-05T03:32:36.271Z,11.87
2023-05-05T03:35:04.450Z,13.00
2023-05-05T03:37:32.415Z,13.30
2023-05-05T03:40:01.744Z,12.37
2023-05-05T03:42:29.718Z,12.77
2023-05-05T03:44:57.757Z,11.73
2023-05-05T03:47:25.757Z,11.53
2023-05-05T03:49:53.733Z,10.63
2023-05-05T03:52:21.728Z,10.30
2023-05-05T03:54:49.685Z,10.20
2023-05-05T03:57:19.002Z,10.63
2023-05-05T03:59:47.083Z,9.60
2023-05-05T04:02:16.977Z,10.33
2023-05-05T04:04:46.343Z,10.07
2023-05-05T04:07:14.350Z,9.10
2023-05-05T04:09:44.671Z,9.40
2023-05-05T04:12:12.694Z,10.37
2023-05-05T04:14:42.021Z,9.77
2023-05-05T04:17:10.011Z,10.10
2023-05-05T04:19:37.952Z,10.60
2023-05-05T04:22:05.935Z,10.57
2023-05-05T04:24:33.900Z,9.80
2023-05-05T04:27:02.294Z,10.93
2023-05-05T04:29:30.286Z,10.90
2023-05-05T04:31:59.642Z,13.40
2023-05-05T04:34:27.597Z,12.53
2023-05-05T04:36:55.554Z,12.33
2023-05-05T04:39:23.569Z,10.87
2023-05-05T04:41:51.510Z,10.60
2023-05-05T04:44:19.484Z,10.37
2023-05-05T04:46:47.530Z,10.87
2023-05-05T04:49:16.909Z,11.50
2023-05-05T04:51:44.952Z,11.30
2023-05-05T04:54:12.891Z,11.40
2023-05-05T04:56:40.885Z,10.53
2023-05-05T04:59:08.862Z,11.83
2023-05-05T05:01:38.563Z,12.17
2023-05-05T05:04:06.730Z,11.57
2023-05-05T05:06:36.087Z,12.07
2023-05-05T05:09:04.211Z,10.63
2023-05-05T05:11:32.221Z,11.00
2023-05-05T05:14:00.218Z,11.27
2023-05-05T05:16:28.356Z,11.00
2023-05-05T05:18:56.377Z,12.00
2023-05-05T05:21:24.396Z,11.40
2023-05-05T05:23:54.077Z,12.20
2023-05-05T05:26:22.192Z,10.87
2023-05-05T05:28:50.172Z,11.47
2023-05-05T05:31:18.534Z,11.43
2023-05-05T05:33:46.531Z,11.27
2023-05-05T05:36:14.546Z,10.50
2023-05-05T05:38:42.481Z,11.10
2023-05-05T05:41:12.459Z,10.40
2023-05-05T05:43:41.561Z,11.07
2023-05-05T05:46:09.816Z,10.40
2023-05-05T05:48:38.209Z,10.70
2023-05-05T05:51:06.291Z,9.70
2023-05-05T05:53:34.384Z,10.70
2023-05-05T05:56:02.433Z,8.93
2023-05-05T05:58:32.149Z,9.10
2023-05-05T06:01:00.358Z,9.53
2023-05-05T06:03:28.421Z,9.00
2023-05-05T06:05:56.690Z,9.93
2023-05-05T06:08:25.128Z,9.33
2023-05-05T06:10:53.306Z,9.00
2023-05-05T06:13:21.477Z,8.77
2023-05-05T06:15:50.958Z,8.67
2023-05-05T06:18:18.992Z,9.10
2023-05-05T06:20:49.889Z,8.93
2023-05-05T06:23:18.141Z,8.27
2023-05-05T06:25:46.226Z,8.80
2023-05-05T06:28:14.194Z,8.90
2023-05-05T06:30:42.177Z,8.60
2023-05-05T06:33:11.598Z,8.53
2023-05-05T06:35:39.591Z,8.70
2023-05-05T06:38:07.639Z,8.37
2023-05-05T06:40:35.993Z,9.93
2023-05-05T06:43:03.931Z,8.70
2023-05-05T06:45:32.215Z,8.53
2023-05-05T06:48:00.337Z,8.07
2023-05-05T06:50:29.712Z,8.93
2023-05-05T06:52:57.673Z,8.43
2023-05-05T06:55:26.364Z,8.20
2023-05-05T06:57:54.469Z,7.93
2023-05-05T07:00:23.128Z,8.23
2023-05-05T07:02:51.386Z,8.13
2023-05-05T07:05:19.496Z,8.03
2023-05-05T07:07:53.863Z,7.37
2023-05-05T07:10:22.810Z,7.20
2023-05-05T07:12:51.629Z,7.33
2023-05-05T07:15:28.787Z,6.63
2023-05-05T07:17:57.772Z,6.73
2023-05-05T07:20:26.589Z,7.20
2023-05-05T07:22:56.143Z,6.07
2023-05-05T07:25:24.147Z,7.00
2023-05-05T07:27:52.242Z,6.63
2023-05-05T07:30:20.973Z,5.95
2023-05-05T07:32:49.322Z,6.95
2023-05-05T07:35:17.537Z,6.32
2023-05-05T07:37:45.873Z,5.82
2023-05-05T07:40:15.412Z,6.32
2023-05-05T07:42:43.422Z,6.47
2023-05-05T07:45:12.576Z,6.65
2023-05-05T07:47:40.837Z,6.10
2023-05-05T07:50:09.750Z,6.05
2023-05-05T07:52:48.457Z,5.60
2023-05-05T07:55:21.313Z,6.25
2023-05-05T07:57:49.792Z,6.00
2023-05-05T08:00:19.975Z,6.60
2023-05-05T08:02:48.349Z,6.25
2023-05-05T08:05:17.128Z,5.45
2023-05-05T08:07:45.146Z,6.03
2023-05-05T08:10:13.937Z,5.47
2023-05-05T08:12:43.330Z,5.60
2023-05-05T08:15:11.953Z,6.47
2023-05-05T08:17:48.737Z,5.65
2023-05-05T08:20:17.052Z,5.90
2023-05-05T08:22:45.208Z,4.90
2023-05-05T08:25:13.922Z,5.40
2023-05-05T08:27:44.317Z,5.80
2023-05-05T08:30:13.380Z,5.18
2023-05-05T08:32:41.509Z,4.53
2023-05-05T08:35:10.387Z,4.70
2023-05-05T08:37:38.641Z,5.00
2023-05-05T08:40:07.629Z,10.43
2023-05-05T08:42:38.671Z,4.90
2023-05-05T08:45:11.142Z,5.20
2023-05-05T08:47:41.060Z,6.00
2023-05-05T08:50:11.415Z,5.70
2023-05-05T08:52:41.496Z,4.68
2023-05-05T08:55:22.290Z,5.18
2023-05-05T08:57:53.709Z,10.07
2023-05-05T09:00:24.020Z,5.88
2023-05-05T09:02:52.358Z,5.90
2023-05-05T09:05:20.647Z,4.70
2023-05-05T09:07:48.957Z,4.97
2023-05-05T09:10:17.149Z,4.60
2023-05-05T09:12:45.644Z,5.63
2023-05-05T09:15:15.247Z,4.40
2023-05-05T09:17:44.766Z,4.28
2023-05-05T09:20:14.351Z,4.40
2023-05-05T09:22:44.434Z,4.43
2023-05-05T09:25:13.456Z,4.10
2023-05-05T09:27:43.511Z,4.40
2023-05-05T09:30:15.973Z,4.10
2023-05-05T09:32:49.517Z,4.40
2023-05-05T09:35:18.661Z,3.83
2023-05-05T09:37:47.193Z,3.90
2023-05-05T09:40:16.768Z,5.18
2023-05-05T09:42:45.397Z,4.22
2023-05-05T09:45:27.547Z,4.40
2023-05-05T09:48:00.441Z,4.20
2023-05-05T09:50:30.885Z,3.92
2023-05-05T09:53:00.747Z,3.83
2023-05-05T09:55:29.063Z,4.10
2023-05-05T09:57:57.120Z,3.97
2023-05-05T10:00:39.600Z,3.88
2023-05-05T10:03:09.026Z,3.45
2023-05-05T10:05:48.596Z,4.07
2023-05-05T10:08:17.059Z,4.22
2023-05-05T10:10:51.899Z,4.32
2023-05-05T10:13:22.322Z,5.05
2023-05-05T10:15:52.134Z,4.80
2023-05-05T10:18:26.079Z,4.88
2023-05-05T10:20:59.854Z,5.22
2023-05-05T10:23:36.915Z,3.60
2023-05-05T10:26:07.234Z,10.23
2023-05-05T10:28:38.328Z,5.80
2023-05-05T10:31:24.205Z,4.70
2023-05-05T10:34:01.271Z,4.07
2023-05-05T10:36:31.684Z,4.55
2023-05-05T10:39:01.105Z,4.38
2023-05-05T10:41:30.927Z,5.13
2023-05-05T10:44:02.088Z,3.72
2023-05-05T10:46:31.910Z,4.05
2023-05-05T10:49:13.170Z,4.10
2023-05-05T10:51:47.591Z,4.20
2023-05-05T10:54:25.709Z,4.00
2023-05-05T10:56:54.262Z,4.93
2023-05-05T10:59:42.315Z,4.30
2023-05-05T11:02:24.688Z,5.00
2023-05-05T11:05:14.316Z,4.72
2023-05-05T11:07:42.952Z,4.80
2023-05-05T11:10:13.153Z,4.70
2023-05-05T11:13:19.598Z,5.30
2023-05-05T11:15:47.954Z,5.70
2023-05-05T11:18:34.025Z,5.30
2023-05-05T11:21:17.166Z,4.90
2023-05-05T11:23:50.469Z,4.68
2023-05-05T11:26:40.118Z,4.75
2023-05-05T11:29:08.449Z,5.15
2023-05-05T11:31:36.646Z,4.65
2023-05-05T11:34:27.752Z,4.95
2023-05-05T11:37:02.744Z,4.88
2023-05-05T11:39:42.157Z,4.68
2023-05-05T11:42:34.015Z,6.05
2023-05-05T11:45:02.203Z,5.00
2023-05-05T11:47:31.825Z,4.78
2023-05-05T11:50:20.012Z,4.75
2023-05-05T11:52:49.710Z,5.13
2023-05-05T11:55:24.024Z,4.80
2023-05-05T11:57:52.337Z,4.68
2023-05-05T12:00:20.939Z,4.90
2023-05-05T12:02:57.409Z,5.15
2023-05-05T12:05:25.778Z,4.72
2023-05-05T12:07:59.654Z,4.75
2023-05-05T12:10:28.328Z,5.20
2023-05-05T12:12:56.342Z,5.20
2023-05-05T12:15:31.963Z,5.20
2023-05-05T12:18:02.443Z,5.47
2023-05-05T12:20:32.481Z,4.95
2023-05-05T12:23:08.510Z,5.13
2023-05-05T12:25:38.278Z,6.15
2023-05-05T12:28:07.174Z,5.30
2023-05-05T12:30:35.904Z,4.88
2023-05-05T12:33:05.261Z,5.03
2023-05-05T12:35:33.810Z,5.00
2023-05-05T12:38:02.125Z,4.95
2023-05-05T12:40:52.927Z,4.88
2023-05-05T12:43:31.385Z,4.93
2023-05-05T12:46:04.273Z,4.88
2023-05-05T12:48:32.578Z,4.60
2023-05-05T12:51:20.506Z,5.18
2023-05-05T12:53:49.684Z,4.88
2023-05-05T12:56:36.442Z,5.38
2023-05-05T12:59:06.521Z,4.90
2023-05-05T13:01:35.169Z,4.60
2023-05-05T13:04:08.507Z,4.78
2023-05-05T13:06:37.676Z,5.10
2023-05-05T13:09:06.394Z,5.00
2023-05-05T13:11:39.393Z,5.00
2023-05-05T13:14:08.086Z,4.85
2023-05-05T13:16:36.728Z,4.82
2023-05-05T13:19:04.858Z,5.05
2023-05-05T13:21:33.412Z,5.13
2023-05-05T13:24:08.609Z,4.88
2023-05-05T13:26:48.420Z,4.60
2023-05-05T13:29:17.472Z,5.30
2023-05-05T13:31:46.242Z,4.72
2023-05-05T13:34:14.407Z,4.70
2023-05-05T13:36:42.393Z,4.45
2023-05-05T13:39:10.514Z,4.50
2023-05-05T13:41:38.493Z,4.70
2023-05-05T13:44:07.847Z,4.88
2023-05-05T13:46:36.031Z,4.82
2023-05-05T13:49:04.069Z,4.70
2023-05-05T13:51:32.026Z,4.70
2023-05-05T13:54:00.043Z,5.03
2023-05-05T13:56:28.876Z,5.50
2023-05-05T13:58:57.323Z,4.85
2023-05-05T14:01:26.977Z,4.60
2023-05-05T14:03:57.152Z,4.60
2023-05-05T14:06:25.966Z,4.55
2023-05-05T14:08:54.050Z,5.03
2023-05-05T14:11:22.058Z,4.80
2023-05-05T14:13:50.029Z,4.40
2023-05-05T14:16:18.044Z,4.70
2023-05-05T14:18:47.450Z,5.18
2023-05-05T14:21:15.396Z,4.60
2023-05-05T14:23:43.364Z,4.82
2023-05-05T14:26:11.438Z,5.40
2023-05-05T14:28:39.409Z,5.25
2023-05-05T14:31:07.502Z,4.90
2023-05-05T14:33:35.462Z,4.45
2023-05-05T14:36:05.062Z,4.68
2023-05-05T14:38:33.153Z,4.68
2023-05-05T14:41:01.449Z,4.85
2023-05-05T14:43:29.404Z,5.00
2023-05-05T14:45:59.158Z,4.80
2023-05-05T14:48:27.489Z,4.75
2023-05-05T14:50:55.544Z,4.70
2023-05-05T14:53:24.932Z,4.80
2023-05-05T14:55:52.899Z,5.10
2023-05-05T14:58:23.751Z,4.97
2023-05-05T15:00:52.853Z,4.55
2023-05-05T15:03:20.943Z,4.63
2023-05-05T15:05:49.399Z,4.30
2023-05-05T15:08:18.721Z,4.55
2023-05-05T15:10:48.134Z,4.57
2023-05-05T15:13:17.166Z,4.50
2023-05-05T15:15:45.600Z,4.80
2023-05-05T15:18:13.591Z,4.63
2023-05-05T15:20:41.600Z,4.80
2023-05-05T15:23:09.585Z,4.35
2023-05-05T15:25:37.620Z,4.40
2023-05-05T15:28:07.170Z,4.70
2023-05-05T15:30:35.328Z,4.32
2023-05-05T15:33:03.365Z,4.80
2023-05-05T15:35:31.344Z,5.25
2023-05-05T15:37:59.334Z,4.95
2023-05-05T15:40:27.322Z,4.53
2023-05-05T15:42:55.442Z,4.95
2023-05-05T15:45:24.977Z,4.60
2023-05-05T15:47:53.716Z,4.72
2023-05-05T15:50:21.986Z,4.65
2023-05-05T15:52:50.320Z,4.55
2023-05-05T15:55:18.529Z,4.18
2023-05-05T15:57:46.530Z,4.50
2023-05-05T16:00:16.047Z,5.50
2023-05-05T16:02:45.684Z,5.07
2023-05-05T16:05:14.205Z,4.80
2023-05-05T16:07:42.473Z,4.82
2023-05-05T16:10:11.378Z,5.25
2023-05-05T16:12:39.400Z,5.00
2023-05-05T16:15:08.466Z,4.95
2023-05-05T16:17:36.697Z,4.70
2023-05-05T16:20:07.057Z,4.93
2023-05-05T16:22:35.097Z,4.75
2023-05-05T16:25:03.059Z,4.97
2023-05-05T16:27:31.053Z,4.90
2023-05-05T16:29:59.919Z,5.63
2023-05-05T16:32:28.084Z,5.13
2023-05-05T16:34:56.162Z,5.05
2023-05-05T16:37:25.596Z,5.40
2023-05-05T16:39:53.567Z,4.82
2023-05-05T16:42:21.537Z,4.63
2023-05-05T16:44:49.498Z,5.00
2023-05-05T16:47:17.457Z,4.88
2023-05-05T16:49:45.430Z,4.47
2023-05-05T16:52:13.379Z,4.70
2023-05-05T16:54:43.615Z,4.78
2023-05-05T16:57:11.645Z,4.80
2023-05-05T16:59:41.724Z,4.50
2023-05-05T17:02:09.822Z,4.95
2023-05-05T17:04:37.847Z,4.90
2023-05-05T17:07:05.881Z,4.60
2023-05-05T17:09:33.912Z,4.60
2023-05-05T17:12:04.131Z,5.05
2023-05-05T17:14:33.569Z,4.90
2023-05-05T17:17:01.591Z,4.80
2023-05-05T17:19:29.654Z,4.60
2023-05-05T17:21:57.720Z,4.57
2023-05-05T17:24:25.773Z,4.63
2023-05-05T17:26:53.826Z,4.90
2023-05-05T17:29:23.565Z,4.57
2023-05-05T17:31:51.700Z,5.05
2023-05-05T17:34:19.744Z,5.10
2023-05-05T17:36:47.763Z,5.13
2023-05-05T17:39:15.901Z,4.60
2023-05-05T17:41:43.908Z,4.80
2023-05-05T17:44:11.930Z,4.80
2023-05-05T17:46:41.480Z,5.13
2023-05-05T17:49:09.485Z,4.85
2023-05-05T17:51:37.486Z,4.80
2023-05-05T17:54:05.751Z,4.93
2023-05-05T17:56:33.996Z,5.00
2023-05-05T17:59:02.267Z,4.72
2023-05-05T18:01:30.256Z,5.00
2023-05-05T18:03:59.640Z,5.20
2023-05-05T18:06:29.366Z,4.95
2023-05-05T18:08:57.546Z,5.03
2023-05-05T18:11:27.609Z,5.03
2023-05-05T18:13:56.159Z,5.53
2023-05-05T18:16:24.241Z,5.35
2023-05-05T18:18:52.458Z,4.80
2023-05-05T18:21:22.511Z,5.18
2023-05-05T18:23:50.772Z,5.10
2023-05-05T18:26:18.751Z,5.45
2023-05-05T18:28:46.730Z,5.30
2023-05-05T18:31:14.969Z,5.22
2023-05-05T18:33:42.927Z,4.88
2023-05-05T18:36:10.894Z,5.15
2023-05-05T18:38:40.226Z,5.65
2023-05-05T18:41:08.294Z,5.65
2023-05-05T18:43:36.300Z,5.05
2023-05-05T18:46:04.343Z,5.70
2023-05-05T18:48:32.289Z,5.55
2023-05-05T18:51:02.298Z,5.75
2023-05-05T18:53:30.360Z,6.03
2023-05-05T18:56:00.021Z,6.35
2023-05-05T18:58:28.365Z,6.45
2023-05-05T19:00:56.465Z,6.13
2023-05-05T19:03:24.706Z,6.32
2023-05-05T19:05:52.675Z,6.00
2023-05-05T19:08:20.865Z,5.88
2023-05-05T19:10:48.840Z,6.20
2023-05-05T19:13:18.272Z,6.80
2023-05-05T19:15:46.453Z,6.22
2023-05-05T19:18:14.426Z,7.03
2023-05-05T19:20:43.694Z,7.10
2023-05-05T19:23:11.695Z,6.85
2023-05-05T19:25:39.853Z,6.75
2023-05-05T19:28:07.890Z,6.70
2023-05-05T19:30:37.425Z,6.93
2023-05-05T19:33:05.537Z,6.70
2023-05-05T19:35:33.546Z,6.97
2023-05-05T19:38:01.635Z,8.32
2023-05-05T19:40:29.621Z,8.07
2023-05-05T19:42:57.624Z,8.57
2023-05-05T19:45:25.630Z,8.88
2023-05-05T19:47:54.950Z,7.57
2023-05-05T19:50:23.172Z,7.65
2023-05-05T19:52:51.168Z,7.90
2023-05-05T19:55:19.717Z,7.97
2023-05-05T19:57:47.752Z,8.52
2023-05-05T20:00:16.643Z,8.50
2023-05-05T20:02:45.347Z,8.35
2023-05-05T20:05:16.381Z,9.20
2023-05-05T20:07:44.757Z,8.63
2023-05-05T20:10:14.099Z,8.77
2023-05-05T20:12:47.912Z,8.82
2023-05-05T20:15:18.752Z,8.23
2023-05-05T20:17:47.769Z,8.30
2023-05-05T20:20:20.063Z,8.82
2023-05-05T20:22:49.044Z,9.05
2023-05-05T20:25:17.352Z,9.63
2023-05-05T20:27:46.349Z,8.75
2023-05-05T20:30:14.606Z,9.18
2023-05-05T20:32:42.723Z,9.55
2023-05-05T20:35:12.797Z,8.20
2023-05-05T20:37:42.606Z,8.60
2023-05-05T20:40:12.063Z,9.23
2023-05-05T20:42:40.195Z,10.07
2023-05-05T20:45:10.624Z,9.05
2023-05-05T20:47:38.678Z,9.55
2023-05-05T20:50:07.986Z,9.35
2023-05-05T20:52:36.234Z,9.90
2023-05-05T20:55:06.112Z,9.85
2023-05-05T20:57:34.150Z,9.90
2023-05-05T21:00:02.189Z,8.75
2023-05-05T21:02:31.673Z,8.53
2023-05-05T21:05:02.905Z,8.43
2023-05-05T21:07:33.192Z,7.70
2023-05-05T21:10:01.246Z,8.23
2023-05-05T21:12:31.119Z,8.73
2023-05-05T21:14:59.644Z,8.35
2023-05-05T21:17:27.842Z,8.68
2023-05-05T21:19:56.875Z,8.90
2023-05-05T21:22:25.277Z,7.80
2023-05-05T21:24:53.237Z,8.23
2023-05-05T21:27:21.515Z,8.07
2023-05-05T21:29:52.524Z,8.00
2023-05-05T21:32:20.664Z,8.20
2023-05-05T21:34:48.743Z,8.15
2023-05-05T21:37:16.712Z,9.23
2023-05-05T21:39:44.710Z,8.25
2023-05-05T21:42:12.741Z,8.73
2023-05-05T21:44:40.707Z,8.90
2023-05-05T21:47:11.590Z,8.50
2023-05-05T21:49:39.658Z,9.27
2023-05-05T21:52:07.623Z,9.32
2023-05-05T21:54:35.725Z,9.03
2023-05-05T21:57:03.855Z,9.70
2023-05-05T21:59:31.846Z,10.17
2023-05-05T22:02:00.015Z,9.33
2023-05-05T22:04:29.477Z,9.43
2023-05-05T22:06:57.447Z,9.65
2023-05-05T22:09:25.449Z,9.23
2023-05-05T22:11:53.440Z,9.73
2023-05-05T22:14:21.442Z,9.93
2023-05-05T22:16:49.485Z,10.00
2023-05-05T22:19:17.444Z,10.23
2023-05-05T22:21:46.775Z,10.13
2023-05-05T22:24:14.772Z,9.53
2023-05-05T22:26:43.493Z,10.27
2023-05-05T22:29:12.041Z,9.90
2023-05-05T22:31:40.190Z,9.83
2023-05-05T22:34:08.381Z,9.70
2023-05-05T22:36:36.430Z,10.87
2023-05-05T22:39:05.804Z,10.03
2023-05-05T22:41:33.752Z,9.87
2023-05-05T22:44:01.704Z,10.17
2023-05-05T22:46:29.697Z,10.33
2023-05-05T22:48:57.712Z,10.00
2023-05-05T22:51:25.682Z,9.80
2023-05-05T22:53:53.662Z,9.50
2023-05-05T22:56:23.098Z,9.67
2023-05-05T22:58:51.080Z,9.03
2023-05-05T23:01:19.167Z,8.90
2023-05-05T23:03:47.199Z,9.07
2023-05-05T23:06:15.200Z,8.47
2023-05-05T23:08:43.178Z,8.97
2023-05-05T23:11:11.143Z,8.67
2023-05-05T23:13:40.703Z,8.90
2023-05-05T23:16:08.839Z,9.13
2023-05-05T23:18:37.879Z,8.80
2023-05-05T23:21:05.858Z,8.40
2023-05-05T23:23:33.939Z,8.40
2023-05-05T23:26:01.915Z,8.10
2023-05-05T23:28:29.870Z,8.30
2023-05-05T23:30:59.212Z,8.77
2023-05-05T23:33:27.184Z,8.30
2023-05-05T23:35:55.515Z,8.83
2023-05-05T23:38:23.486Z,8.50
2023-05-05T23:40:51.511Z,8.50
2023-05-05T23:43:19.475Z,8.73
2023-05-05T23:45:47.521Z,8.30
2023-05-05T23:48:16.877Z,7.73
2023-05-05T23:50:44.870Z,8.33
2023-05-05T23:53:13.304Z,8.90
2023-05-05T23:55:41.259Z,8.17
2023-05-05T23:58:09.225Z,8.23
